Time,TemperatureF,DewpointF,PressureIn,WindDirection,WindDirectionDegrees,WindSpeedMPH,WindSpeedGustMPH,Humidity,HourlyPrecipIn,Conditions,Clouds,dailyrainin,SoftwareType,DateUTC
2013-02-19 02:12:00,27.3,17.8,29.66,SW,226,4.0,11.0,67,0.00,,SKC,0.00,VWS V12.07,2013-02-19 10:12:00,
2013-02-19 02:22:00,27.0,17.9,29.66,SW,227,5.0,11.0,68,0.00,,SKC,0.00,VWS V12.07,2013-02-19 10:22:00,
2013-02-19 02:32:00,26.1,17.0,29.65,WSW,241,6.0,8.0,68,0.00,,SKC,0.00,VWS V12.07,2013-02-19 10:32:00,
2013-02-19 02:42:00,25.8,17.0,29.66,WSW,252,6.0,10.0,69,0.00,,SKC,0.00,VWS V12.07,2013-02-19 10:42:00,
2013-02-19 02:52:00,26.1,17.3,29.65,WSW,255,6.0,10.0,69,0.00,,SKC,0.00,VWS V12.07,2013-02-19 10:52:00,
2013-02-19 03:02:00,26.4,17.6,29.66,WSW,253,7.0,9.0,69,0.00,,SKC,0.00,VWS V12.07,2013-02-19 11:02:00,
2013-02-19 03:12:00,26.4,17.3,29.66,WSW,255,4.0,10.0,68,0.00,,SKC,0.00,VWS V12.07,2013-02-19 11:12:00,
2013-02-19 03:22:00,26.8,17.7,29.65,WSW,237,7.0,13.0,68,0.00,,SKC,0.00,VWS V12.07,2013-02-19 11:22:00,
2013-02-19 03:32:00,27.1,17.6,29.64,SW,223,7.0,11.0,67,0.00,,SKC,0.00,VWS V12.07,2013-02-19 11:32:00,
2013-02-19 03:42:00,27.4,17.5,29.64,SW,221,7.0,11.0,66,0.00,,SKC,0.00,VWS V12.07,2013-02-19 11:42:00,
2013-02-19 03:52:00,27.4,17.5,29.64,SW,221,8.0,11.0,66,0.00,,SKC,0.00,VWS V12.07,2013-02-19 11:52:00,
2013-02-19 04:02:00,27.4,17.5,29.65,SW,223,4.0,7.0,66,0.00,,SKC,0.00,VWS V12.07,2013-02-19 12:02:00,
2013-02-19 04:12:00,27.3,17.8,29.64,SW,223,5.0,7.0,67,0.00,,SKC,0.00,VWS V12.07,2013-02-19 12:12:00,
2013-02-19 04:22:00,27.0,17.9,29.64,SW,223,3.0,7.0,68,0.00,,SKC,0.00,VWS V12.07,2013-02-19 12:22:00,
2013-02-19 04:32:00,26.7,17.6,29.63,SW,223,5.0,5.0,68,0.00,,SKC,0.00,VWS V12.07,2013-02-19 12:32:00,
2013-02-19 04:42:00,26.5,17.7,29.64,SW,223,4.0,5.0,69,0.00,,SKC,0.00,VWS V12.07,2013-02-19 12:42:00,
2013-02-19 04:52:00,26.2,17.8,29.63,SW,223,7.0,7.0,70,0.00,,SKC,0.00,VWS V12.07,2013-02-19 12:52:00,
2013-02-19 05:02:00,25.8,17.4,29.63,SW,221,3.0,7.0,70,0.00,,SKC,0.00,VWS V12.07,2013-02-19 13:02:00,
2013-02-19 05:12:00,25.5,17.8,29.64,SW,221,4.0,7.0,72,0.00,,SKC,0.00,VWS V12.07,2013-02-19 13:12:00,
2013-02-19 05:22:00,25.5,18.1,29.65,SW,221,5.0,7.0,73,0.00,,SKC,0.00,VWS V12.07,2013-02-19 13:22:00,
2013-02-19 05:32:00,25.4,18.0,29.64,SW,221,4.0,6.0,73,0.00,,SKC,0.00,VWS V12.07,2013-02-19 13:32:00,
2013-02-19 05:42:00,25.2,17.8,29.65,SW,221,1.0,6.0,73,0.00,,SKC,0.00,VWS V12.07,2013-02-19 13:42:00,
2013-02-19 05:52:00,25.2,18.1,29.64,SW,221,1.0,6.0,74,0.00,,SKC,0.00,VWS V12.07,2013-02-19 13:52:00,
2013-02-19 06:02:00,25.1,18.0,29.63,SW,221,2.0,4.0,74,0.00,,SKC,0.00,VWS V12.07,2013-02-19 14:02:00,
2013-02-19 06:12:00,25.4,18.3,29.64,SW,221,5.0,7.0,74,0.00,,SKC,0.00,VWS V12.07,2013-02-19 14:12:00,
2013-02-19 06:22:00,25.9,18.8,29.64,SW,221,5.0,7.0,74,0.00,,SKC,0.00,VWS V12.07,2013-02-19 14:22:00,
2013-02-19 06:32:00,26.7,18.6,29.64,SW,221,4.0,6.0,71,0.00,,SKC,0.00,VWS V12.07,2013-02-19 14:32:00,
2013-02-19 06:42:00,25.9,17.8,29.65,SW,221,6.0,7.0,71,0.00,,SKC,0.00,VWS V12.07,2013-02-19 14:42:00,
2013-02-19 06:52:00,25.1,17.4,29.64,SW,221,0.0,7.0,72,0.00,,SKC,0.00,VWS V12.07,2013-02-19 14:52:00,
2013-02-19 07:02:00,24.0,16.6,29.64,SW,221,3.0,5.0,73,0.00,,SKC,0.00,VWS V12.07,2013-02-19 15:02:00,
2013-02-19 07:12:00,24.6,17.5,29.63,SW,221,2.0,5.0,74,0.00,,SKC,0.00,VWS V12.07,2013-02-19 15:12:00,
2013-02-19 07:22:00,24.9,17.8,29.65,SW,221,2.0,5.0,74,0.00,,SKC,0.00,VWS V12.07,2013-02-19 15:22:00,
2013-02-19 07:32:00,25.1,18.0,29.64,SW,223,6.0,7.0,74,0.00,,SKC,0.00,VWS V12.07,2013-02-19 15:32:00,
2013-02-19 07:42:00,24.9,17.8,29.64,SW,227,4.0,7.0,74,0.00,,SKC,0.00,VWS V12.07,2013-02-19 15:42:00,
2013-02-19 07:52:00,25.4,18.3,29.65,SW,229,4.0,7.0,74,0.00,,SKC,0.00,VWS V12.07,2013-02-19 15:52:00,
2013-02-19 08:02:00,25.7,18.6,29.65,SW,229,2.0,5.0,74,0.00,,SKC,0.00,VWS V12.07,2013-02-19 16:02:00,
2013-02-19 08:12:00,25.8,18.4,29.65,SW,229,0.0,5.0,73,0.00,,SKC,0.00,VWS V12.07,2013-02-19 16:12:00,
2013-02-19 08:22:00,26.0,18.5,29.66,SW,229,0.0,5.0,73,0.00,,SKC,0.00,VWS V12.07,2013-02-19 16:22:00,
2013-02-19 08:32:00,26.4,18.3,29.66,SW,229,2.0,3.0,71,0.00,,SKC,0.00,VWS V12.07,2013-02-19 16:32:00,
2013-02-19 08:42:00,26.9,18.8,29.66,SW,229,0.0,3.0,71,0.00,,SKC,0.00,VWS V12.07,2013-02-19 16:42:00,
2013-02-19 08:52:00,27.4,18.9,29.65,SW,229,3.0,4.0,70,0.00,,SKC,0.00,VWS V12.07,2013-02-19 16:52:00,
2013-02-19 09:02:00,27.9,19.4,29.66,SW,229,4.0,7.0,70,0.00,,SKC,0.00,VWS V12.07,2013-02-19 17:02:00,
2013-02-19 09:12:00,28.2,18.7,29.66,WSW,247,4.0,7.0,67,0.00,,SKC,0.00,VWS V12.07,2013-02-19 17:12:00,
2013-02-19 09:22:00,28.8,19.2,29.67,NNW,336,12.0,12.0,67,0.00,,SKC,0.00,VWS V12.07,2013-02-19 17:22:00,
2013-02-19 09:32:00,29.4,19.1,29.67,North,354,9.0,13.0,65,0.00,,SKC,0.00,VWS V12.07,2013-02-19 17:32:00,
2013-02-19 09:42:00,29.5,18.8,29.68,North,351,5.0,13.0,64,0.00,,SKC,0.00,VWS V12.07,2013-02-19 17:42:00,
2013-02-19 09:52:00,30.0,19.3,29.67,North,354,4.0,13.0,64,0.00,,SKC,0.00,VWS V12.07,2013-02-19 17:52:00,
2013-02-19 10:02:00,30.3,19.6,29.67,North,351,2.0,7.0,64,0.00,,SKC,0.00,VWS V12.07,2013-02-19 18:02:00,
2013-02-19 10:12:00,31.4,20.3,29.66,North,354,2.0,9.0,63,0.00,,SKC,0.00,VWS V12.07,2013-02-19 18:12:00,
2013-02-19 10:22:00,31.7,19.4,29.67,NNW,343,3.0,10.0,60,0.00,,SKC,0.00,VWS V12.07,2013-02-19 18:22:00,
2013-02-19 10:32:00,31.4,19.5,29.66,NNW,345,5.0,9.0,61,0.00,,SKC,0.00,VWS V12.07,2013-02-19 18:32:00,
2013-02-19 10:42:00,32.0,19.7,29.67,North,0,7.0,9.0,60,0.00,,SKC,0.00,VWS V12.07,2013-02-19 18:42:00,
2013-02-19 10:52:00,33.2,20.8,29.66,NE,38,6.0,10.0,60,0.00,,SKC,0.00,VWS V12.07,2013-02-19 18:52:00,
2013-02-19 11:02:00,33.7,20.1,29.67,NE,50,5.0,11.0,57,0.00,,SKC,0.00,VWS V12.07,2013-02-19 19:02:00,
2013-02-19 11:12:00,33.5,19.9,29.67,East,93,5.0,12.0,57,0.00,,SKC,0.00,VWS V12.07,2013-02-19 19:12:00,
2013-02-19 11:22:00,33.7,20.5,29.67,ESE,108,4.0,12.0,58,0.00,,SKC,0.00,VWS V12.07,2013-02-19 19:22:00,
2013-02-19 11:32:00,33.2,19.6,29.68,NE,34,6.0,9.0,57,0.00,,SKC,0.00,VWS V12.07,2013-02-19 19:32:00,
2013-02-19 11:42:00,33.7,20.1,29.68,East,101,5.0,12.0,57,0.00,,SKC,0.00,VWS V12.07,2013-02-19 19:42:00,
2013-02-19 11:52:00,34.4,19.9,29.68,ENE,70,4.0,12.0,55,0.00,,SKC,0.00,VWS V12.07,2013-02-19 19:52:00,
2013-02-19 12:02:00,34.6,20.1,29.68,NE,35,5.0,9.0,55,0.00,,SKC,0.00,VWS V12.07,2013-02-19 20:02:00,
2013-02-19 12:12:00,35.4,20.0,29.67,North,359,6.0,13.0,53,0.00,,SKC,0.00,VWS V12.07,2013-02-19 20:12:00,
2013-02-19 12:22:00,35.7,19.4,29.67,North,4,2.0,13.0,51,0.00,,SKC,0.00,VWS V12.07,2013-02-19 20:22:00,
2013-02-19 12:32:00,35.7,18.9,29.68,North,1,4.0,10.0,50,0.00,,SKC,0.00,VWS V12.07,2013-02-19 20:32:00,
2013-02-19 12:42:00,35.5,19.2,29.68,North,10,2.0,10.0,51,0.00,,SKC,0.00,VWS V12.07,2013-02-19 20:42:00,
2013-02-19 12:52:00,36.3,19.5,29.67,NNE,28,5.0,12.0,50,0.00,,SKC,0.00,VWS V12.07,2013-02-19 20:52:00,
2013-02-19 13:02:00,36.5,19.2,29.68,North,0,6.0,10.0,49,0.00,,SKC,0.00,VWS V12.07,2013-02-19 21:02:00,
2013-02-19 13:12:00,35.8,18.5,29.69,NNE,33,4.0,14.0,49,0.00,,SKC,0.00,VWS V12.07,2013-02-19 21:12:00,
2013-02-19 13:22:00,35.7,18.4,29.69,ENE,65,5.0,14.0,49,0.00,,SKC,0.00,VWS V12.07,2013-02-19 21:22:00,
2013-02-19 13:32:00,35.4,18.1,29.69,NNE,28,10.0,11.0,49,0.00,,SKC,0.00,VWS V12.07,2013-02-19 21:32:00,
2013-02-19 13:42:00,36.1,18.3,29.68,NNE,19,7.0,11.0,48,0.00,,SKC,0.00,VWS V12.07,2013-02-19 21:42:00,
2013-02-19 13:52:00,36.7,17.4,29.68,North,357,7.0,14.0,45,0.00,,SKC,0.00,VWS V12.07,2013-02-19 21:52:00,
2013-02-19 14:02:00,36.3,18.0,29.69,North,9,10.0,14.0,47,0.00,,SKC,0.00,VWS V12.07,2013-02-19 22:02:00,
2013-02-19 14:12:00,36.4,18.1,29.69,North,359,6.0,18.0,47,0.00,,SKC,0.00,VWS V12.07,2013-02-19 22:12:00,
2013-02-19 14:22:00,36.0,18.2,29.68,North,0,6.0,18.0,48,0.00,,SKC,0.00,VWS V12.07,2013-02-19 22:22:00,
2013-02-19 14:32:00,36.5,17.7,29.69,NNE,24,6.0,14.0,46,0.00,,SKC,0.00,VWS V12.07,2013-02-19 22:32:00,
2013-02-19 14:42:00,36.5,16.7,29.69,NNE,18,12.0,14.0,44,0.00,,SKC,0.00,VWS V12.07,2013-02-19 22:42:00,
2013-02-19 14:52:00,36.4,17.1,29.70,NNE,28,6.0,15.0,45,0.00,,SKC,0.00,VWS V12.07,2013-02-19 22:52:00,
2013-02-19 15:02:00,36.8,17.5,29.69,North,358,5.0,9.0,45,0.00,,SKC,0.00,VWS V12.07,2013-02-19 23:02:00,
2013-02-19 15:12:00,37.1,18.8,29.70,NNE,19,6.0,15.0,47,0.00,,SKC,0.00,VWS V12.07,2013-02-19 23:12:00,
2013-02-19 15:22:00,37.1,18.2,29.70,North,356,10.0,16.0,46,0.00,,SKC,0.00,VWS V12.07,2013-02-19 23:22:00,
2013-02-19 15:32:00,36.3,18.5,29.71,North,1,7.0,9.0,48,0.00,,SKC,0.00,VWS V12.07,2013-02-19 23:32:00,
2013-02-19 15:42:00,36.3,18.0,29.72,North,357,7.0,15.0,47,0.00,,SKC,0.00,VWS V12.07,2013-02-19 23:42:00,
2013-02-19 15:52:00,36.5,18.2,29.71,North,351,12.0,15.0,47,0.00,,SKC,0.00,VWS V12.07,2013-02-19 23:52:00,
2013-02-19 16:02:00,36.5,19.2,29.72,North,5,9.0,18.0,49,0.00,,SKC,0.00,VWS V12.07,2013-02-20 00:02:00,
2013-02-19 16:12:00,35.8,18.0,29.73,NNW,336,8.0,18.0,48,0.00,,SKC,0.00,VWS V12.07,2013-02-20 00:12:00,
2013-02-19 16:22:00,35.5,18.2,29.72,North,1,5.0,18.0,49,0.00,,SKC,0.00,VWS V12.07,2013-02-20 00:22:00,
2013-02-19 16:32:00,35.8,18.5,29.72,North,354,9.0,12.0,49,0.00,,SKC,0.00,VWS V12.07,2013-02-20 00:32:00,
2013-02-19 16:42:00,35.9,18.1,29.73,NNW,342,4.0,15.0,48,0.00,,SKC,0.00,VWS V12.07,2013-02-20 00:42:00,
2013-02-19 16:52:00,35.5,18.2,29.73,North,358,9.0,15.0,49,0.00,,SKC,0.00,VWS V12.07,2013-02-20 00:52:00,
2013-02-19 17:02:00,35.0,18.2,29.74,NNW,345,7.0,12.0,50,0.00,,SKC,0.00,VWS V12.07,2013-02-20 01:02:00,
2013-02-19 17:12:00,34.7,18.4,29.74,North,4,5.0,14.0,51,0.00,,SKC,0.00,VWS V12.07,2013-02-20 01:12:00,
2013-02-19 17:22:00,34.3,18.1,29.75,North,357,5.0,14.0,51,0.00,,SKC,0.00,VWS V12.07,2013-02-20 01:22:00,
2013-02-19 17:32:00,34.1,18.8,29.75,North,1,4.0,10.0,53,0.00,,SKC,0.00,VWS V12.07,2013-02-20 01:32:00,
2013-02-19 17:42:00,33.8,18.9,29.75,North,0,5.0,10.0,54,0.00,,SKC,0.00,VWS V12.07,2013-02-20 01:42:00,
2013-02-19 17:52:00,33.7,19.3,29.76,North,0,3.0,11.0,55,0.00,,SKC,0.00,VWS V12.07,2013-02-20 01:52:00,
2013-02-19 18:04:00,33.5,19.1,29.76,North,1,4.0,8.0,55,0.00,,SKC,0.00,VWS V12.07,2013-02-20 02:04:00,
2013-02-19 18:12:00,33.4,19.4,29.77,North,1,2.0,8.0,56,0.00,,SKC,0.00,VWS V12.07,2013-02-20 02:12:00,
2013-02-19 18:22:00,33.2,19.6,29.78,North,1,3.0,8.0,57,0.00,,SKC,0.00,VWS V12.07,2013-02-20 02:22:00,
2013-02-19 18:32:00,34.3,21.1,29.78,North,1,2.0,3.0,58,0.00,,SKC,0.00,VWS V12.07,2013-02-20 02:32:00,
2013-02-19 18:42:00,33.4,19.8,29.79,North,1,1.0,3.0,57,0.00,,SKC,0.00,VWS V12.07,2013-02-20 02:42:00,
2013-02-19 18:52:00,36.1,26.2,29.79,North,1,2.0,5.0,67,0.00,,SKC,0.00,VWS V12.07,2013-02-20 02:52:00,
2013-02-19 19:02:00,34.5,24.3,29.80,North,3,0.0,3.0,66,0.00,,SKC,0.00,VWS V12.07,2013-02-20 03:02:00,
2013-02-19 19:12:00,35.1,25.3,29.80,North,4,2.0,5.0,67,0.00,,SKC,0.00,VWS V12.07,2013-02-20 03:12:00,
2013-02-19 19:22:00,32.8,22.3,29.81,North,5,2.0,7.0,65,0.00,,SKC,0.00,VWS V12.07,2013-02-20 03:22:00,
2013-02-19 19:32:00,31.9,21.5,29.80,North,5,2.0,5.0,65,0.00,,SKC,0.00,VWS V12.07,2013-02-20 03:32:00,
2013-02-19 19:42:00,30.9,20.5,29.80,North,1,6.0,7.0,65,0.00,,SKC,0.00,VWS V12.07,2013-02-20 03:42:00,
2013-02-19 19:52:00,30.6,20.2,29.81,North,1,4.0,7.0,65,0.00,,SKC,0.00,VWS V12.07,2013-02-20 03:52:00,
2013-02-19 20:02:00,30.1,20.1,29.80,North,1,2.0,4.0,66,0.00,,SKC,0.00,VWS V12.07,2013-02-20 04:02:00,
2013-02-19 20:12:00,30.1,20.5,29.81,North,1,5.0,5.0,67,0.00,,SKC,0.00,VWS V12.07,2013-02-20 04:12:00,
2013-02-19 20:22:00,29.5,19.9,29.82,North,1,5.0,6.0,67,0.00,,SKC,0.00,VWS V12.07,2013-02-20 04:22:00,
2013-02-19 20:32:00,29.3,20.1,29.81,North,0,5.0,6.0,68,0.00,,SKC,0.00,VWS V12.07,2013-02-20 04:32:00,
2013-02-19 20:42:00,29.1,19.9,29.81,North,0,5.0,7.0,68,0.00,,SKC,0.00,VWS V12.07,2013-02-20 04:42:00,
2013-02-19 20:52:00,29.4,20.5,29.82,NNW,339,4.0,9.0,69,0.00,,SKC,0.00,VWS V12.07,2013-02-20 04:52:00,
2013-02-19 21:02:00,29.1,19.9,29.82,NNW,337,7.0,7.0,68,0.00,,SKC,0.00,VWS V12.07,2013-02-20 05:02:00,
2013-02-19 21:12:00,29.4,20.5,29.83,NNW,328,6.0,8.0,69,0.00,,SKC,0.00,VWS V12.07,2013-02-20 05:12:00,
2013-02-19 21:22:00,30.0,20.7,29.84,NW,325,6.0,9.0,68,0.00,,SKC,0.00,VWS V12.07,2013-02-20 05:22:00,
2013-02-19 21:32:00,30.0,20.7,29.84,NW,325,5.0,7.0,68,0.00,,SKC,0.00,VWS V12.07,2013-02-20 05:32:00,
2013-02-19 21:42:00,30.0,20.7,29.83,NW,323,5.0,8.0,68,0.00,,SKC,0.00,VWS V12.07,2013-02-20 05:42:00,
2013-02-19 21:52:00,29.7,20.5,29.84,NW,317,3.0,8.0,68,0.00,,SKC,0.00,VWS V12.07,2013-02-20 05:52:00,
2013-02-19 22:02:00,29.5,20.6,29.84,NW,316,5.0,7.0,69,0.00,,SKC,0.00,VWS V12.07,2013-02-20 06:02:00,
2013-02-19 22:12:00,29.5,20.6,29.85,NW,314,5.0,7.0,69,0.00,,SKC,0.00,VWS V12.07,2013-02-20 06:12:00,
2013-02-19 22:22:00,29.2,20.3,29.85,WNW,299,4.0,7.0,69,0.00,,SKC,0.00,VWS V12.07,2013-02-20 06:22:00,
2013-02-19 22:32:00,28.8,19.9,29.85,WNW,292,5.0,5.0,69,0.00,,SKC,0.00,VWS V12.07,2013-02-20 06:32:00,
2013-02-19 22:42:00,28.5,20.0,29.85,WNW,292,1.0,6.0,70,0.00,,SKC,0.00,VWS V12.07,2013-02-20 06:42:00,
2013-02-19 22:52:00,28.3,19.8,29.85,WNW,293,2.0,6.0,70,0.00,,SKC,0.00,VWS V12.07,2013-02-20 06:52:00,
2013-02-19 23:02:00,28.3,19.8,29.86,WNW,292,4.0,5.0,70,0.00,,SKC,0.00,VWS V12.07,2013-02-20 07:02:00,
2013-02-19 23:12:00,28.5,20.3,29.86,WNW,292,4.0,6.0,71,0.00,,SKC,0.00,VWS V12.07,2013-02-20 07:12:00,
2013-02-19 23:22:00,28.6,20.1,29.86,WNW,292,3.0,6.0,70,0.00,,SKC,0.00,VWS V12.07,2013-02-20 07:22:00,
2013-02-19 23:32:00,27.6,19.1,29.87,WNW,292,2.0,4.0,70,0.00,,SKC,0.00,VWS V12.07,2013-02-20 07:32:00,
2013-02-19 23:42:00,26.7,18.9,29.87,WNW,292,2.0,5.0,72,0.00,,SKC,0.00,VWS V12.07,2013-02-20 07:42:00,
2013-02-19 23:52:00,26.7,19.2,29.87,WNW,292,3.0,5.0,73,0.00,,SKC,0.00,VWS V12.07,2013-02-20 07:52:00,